Time;durP1;ratioP1;P1;durP2;ratioP2;P2;SDS_P1;SDS_P2;PMS_P1;PMS_P2;Temp;Humidity;BMP_temperature;BMP_pressure;BME280_temperature;BME280_humidity;BME280_pressure;Samples;Min_cycle;Max_cycle;Signal;HPM_P1;HPM_P2
2021/08/06 00:00:14;;;;;;;;;;;21.50;61.40;;;;;;492050;240;1054;-46
2021/08/06 00:02:15;;;;;;;;;;;21.50;61.40;;;;;;491542;240;2196;-46
2021/08/06 00:04:17;;;;;;;;;;;21.50;61.40;;;;;;491590;240;1259;-46
2021/08/06 00:06:20;;;;;;;;;;;21.60;61.50;;;;;;491689;240;1166;-46
2021/08/06 00:08:19;;;;;;;;;;;21.60;61.50;;;;;;491540;240;2157;-46
2021/08/06 00:10:21;;;;;;;;;;;21.60;61.40;;;;;;491628;240;1231;-46
2021/08/06 00:12:23;;;;;;;;;;;21.60;61.40;;;;;;491826;240;1226;-46
2021/08/06 00:14:25;;;;;;;;;;;21.60;61.30;;;;;;491843;240;1178;-46
2021/08/06 00:16:26;;;;;;;;;;;21.70;61.20;;;;;;492025;240;1046;-46
2021/08/06 00:18:27;;;;;;;;;;;21.70;61.10;;;;;;491828;240;1051;-46
2021/08/06 00:20:29;;;;;;;;;;;21.70;61.20;;;;;;491654;240;1281;-46
2021/08/06 00:22:30;;;;;;;;;;;21.60;61.20;;;;;;491692;240;2187;-46
2021/08/06 00:24:31;;;;;;;;;;;21.70;61.30;;;;;;491575;240;1150;-46
2021/08/06 00:26:33;;;;;;;;;;;21.70;61.20;;;;;;491797;240;1112;-46
2021/08/06 00:28:34;;;;;;;;;;;21.70;61.30;;;;;;491920;240;1222;-46
2021/08/06 00:30:35;;;;;;;;;;;21.70;61.20;;;;;;491510;240;1157;-46
2021/08/06 00:32:37;;;;;;;;;;;21.70;62.10;;;;;;491650;240;1201;-46
2021/08/06 00:34:38;;;;;;;;;;;21.60;62.20;;;;;;491696;240;1069;-46
2021/08/06 00:36:39;;;;;;;;;;;21.30;63.20;;;;;;491605;240;1322;-46
2021/08/06 00:38:41;;;;;;;;;;;20.90;64.60;;;;;;491663;240;1047;-46
2021/08/06 00:40:42;;;;;;;;;;;20.50;65.70;;;;;;491745;240;1050;-45
2021/08/06 00:42:43;;;;;;;;;;;20.30;66.40;;;;;;491797;240;2192;-46
2021/08/06 00:44:44;;;;;;;;;;;20.20;67.10;;;;;;491746;240;1188;-46
2021/08/06 00:46:46;;;;;;;;;;;20.10;67.60;;;;;;491515;240;1219;-46
2021/08/06 00:48:47;;;;;;;;;;;19.90;67.80;;;;;;491925;240;1198;-46
2021/08/06 00:50:48;;;;;;;;;;;19.90;68.10;;;;;;491542;240;1220;-46
2021/08/06 00:52:50;;;;;;;;;;;19.80;68.20;;;;;;491804;240;1220;-46
2021/08/06 00:54:51;;;;;;;;;;;19.80;68.40;;;;;;491646;240;1045;-45
2021/08/06 00:56:52;;;;;;;;;;;19.70;68.50;;;;;;491508;240;1141;-45
2021/08/06 00:58:54;;;;;;;;;;;19.70;68.60;;;;;;491998;240;1204;-46
2021/08/06 01:00:55;;;;;;;;;;;19.70;68.70;;;;;;491969;240;1058;-46
2021/08/06 01:02:57;;;;;;;;;;;19.60;68.70;;;;;;491553;240;2193;-46
2021/08/06 01:04:58;;;;;;;;;;;19.60;68.90;;;;;;492022;240;1031;-46
2021/08/06 01:06:59;;;;;;;;;;;19.50;68.90;;;;;;491630;240;1239;-46
2021/08/06 01:09:01;;;;;;;;;;;19.60;69.00;;;;;;491606;240;1051;-46
2021/08/06 01:11:02;;;;;;;;;;;19.50;68.90;;;;;;491985;240;1394;-46
2021/08/06 01:13:03;;;;;;;;;;;19.50;69.00;;;;;;491953;240;1165;-45
2021/08/06 01:15:05;;;;;;;;;;;19.50;69.00;;;;;;491692;240;1063;-46
2021/08/06 01:17:06;;;;;;;;;;;19.50;69.10;;;;;;491999;240;1586;-46
2021/08/06 01:19:07;;;;;;;;;;;19.40;69.10;;;;;;492027;240;1081;-46
2021/08/06 01:21:09;;;;;;;;;;;19.40;69.20;;;;;;491647;240;1274;-46
2021/08/06 01:23:11;;;;;;;;;;;19.40;69.20;;;;;;491542;240;2196;-46
2021/08/06 01:25:12;;;;;;;;;;;19.40;69.20;;;;;;491576;240;1232;-46
2021/08/06 01:27:13;;;;;;;;;;;19.40;69.30;;;;;;491987;240;1240;-46
2021/08/06 01:29:15;;;;;;;;;;;19.30;69.30;;;;;;491990;240;1048;-45
2021/08/06 01:31:16;;;;;;;;;;;19.30;69.50;;;;;;491534;240;1118;-46
2021/08/06 01:33:17;;;;;;;;;;;19.30;69.40;;;;;;491498;240;1226;-46
2021/08/06 01:35:18;;;;;;;;;;;19.30;69.40;;;;;;491822;240;1078;-45
2021/08/06 01:37:20;;;;;;;;;;;19.30;69.40;;;;;;491461;240;1188;-45
2021/08/06 01:39:21;;;;;;;;;;;19.30;69.30;;;;;;491977;240;984;-45
2021/08/06 01:41:22;;;;;;;;;;;19.30;69.50;;;;;;491862;240;1298;-46
2021/08/06 01:43:24;;;;;;;;;;;19.30;69.40;;;;;;492016;240;2157;-45
2021/08/06 01:45:25;;;;;;;;;;;19.30;69.50;;;;;;491603;240;1063;-46
2021/08/06 01:47:26;;;;;;;;;;;19.20;69.50;;;;;;491787;240;984;-45
2021/08/06 01:49:28;;;;;;;;;;;19.20;69.50;;;;;;491533;240;1024;-46
2021/08/06 01:51:29;;;;;;;;;;;19.20;69.50;;;;;;491880;240;1124;-46
2021/08/06 01:53:30;;;;;;;;;;;19.20;69.50;;;;;;491957;240;959;-45
2021/08/06 01:55:32;;;;;;;;;;;19.20;69.50;;;;;;491830;240;1034;-46
2021/08/06 01:57:33;;;;;;;;;;;19.20;69.50;;;;;;491567;240;1004;-46
2021/08/06 01:59:34;;;;;;;;;;;19.20;69.50;;;;;;491581;240;1079;-46
2021/08/06 02:01:36;;;;;;;;;;;19.20;69.60;;;;;;491947;240;1033;-45
2021/08/06 02:03:37;;;;;;;;;;;19.20;69.60;;;;;;492051;240;2200;-45
2021/08/06 02:05:39;;;;;;;;;;;19.20;69.60;;;;;;491855;240;1027;-46
2021/08/06 02:07:40;;;;;;;;;;;19.10;69.60;;;;;;491558;240;1182;-45
2021/08/06 02:09:41;;;;;;;;;;;19.10;69.70;;;;;;491854;240;1055;-46
2021/08/06 02:11:43;;;;;;;;;;;19.10;69.80;;;;;;491589;240;1145;-46
2021/08/06 02:13:44;;;;;;;;;;;19.10;69.80;;;;;;491827;240;1170;-46
2021/08/06 02:15:45;;;;;;;;;;;19.10;69.80;;;;;;491693;240;1086;-46
2021/08/06 02:17:47;;;;;;;;;;;19.10;69.80;;;;;;491562;240;1068;-45
2021/08/06 02:19:48;;;;;;;;;;;19.10;69.70;;;;;;491995;240;1077;-46
2021/08/06 02:21:49;;;;;;;;;;;19.10;69.80;;;;;;491552;240;1201;-46
2021/08/06 02:23:51;;;;;;;;;;;19.10;69.70;;;;;;492063;240;2129;-45
2021/08/06 02:25:52;;;;;;;;;;;19.10;69.80;;;;;;491474;240;1699;-46
2021/08/06 02:27:53;;;;;;;;;;;19.00;69.80;;;;;;491959;240;1243;-45
2021/08/06 02:29:55;;;;;;;;;;;19.00;69.80;;;;;;491948;240;1024;-45
2021/08/06 02:31:56;;;;;;;;;;;19.00;69.80;;;;;;491563;240;1646;-46
2021/08/06 02:33:57;;;;;;;;;;;19.10;69.90;;;;;;492047;240;1061;-46
2021/08/06 02:35:59;;;;;;;;;;;19.00;69.90;;;;;;491973;240;1168;-45
2021/08/06 02:38:00;;;;;;;;;;;19.00;70.00;;;;;;491608;240;1192;-45
2021/08/06 02:40:01;;;;;;;;;;;19.00;70.00;;;;;;492018;240;1056;-46
2021/08/06 02:42:03;;;;;;;;;;;19.00;69.90;;;;;;491593;240;1294;-46
2021/08/06 02:44:04;;;;;;;;;;;19.00;70.00;;;;;;491568;240;2209;-46
2021/08/06 02:46:05;;;;;;;;;;;19.00;69.90;;;;;;491495;240;1143;-46
2021/08/06 02:48:07;;;;;;;;;;;19.00;69.80;;;;;;491605;240;1213;-45
2021/08/06 02:50:08;;;;;;;;;;;19.00;69.90;;;;;;491657;240;1098;-46
2021/08/06 02:52:09;;;;;;;;;;;19.00;69.90;;;;;;491557;240;1149;-45
2021/08/06 02:54:11;;;;;;;;;;;19.00;70.00;;;;;;491599;240;1093;-46
2021/08/06 02:56:12;;;;;;;;;;;18.90;70.00;;;;;;491491;240;1304;-46
2021/08/06 02:58:13;;;;;;;;;;;19.00;70.00;;;;;;492047;240;1159;-46
2021/08/06 03:00:15;;;;;;;;;;;19.00;70.00;;;;;;491555;240;1130;-46
2021/08/06 03:02:16;;;;;;;;;;;19.00;69.90;;;;;;491484;240;1111;-45
2021/08/06 03:04:17;;;;;;;;;;;19.00;69.90;;;;;;491595;240;2183;-45
2021/08/06 03:06:18;;;;;;;;;;;18.90;69.90;;;;;;491903;240;1169;-45
2021/08/06 03:08:20;;;;;;;;;;;18.90;69.90;;;;;;491659;240;1688;-45
2021/08/06 03:10:23;;;;;;;;;;;19.00;69.90;;;;;;491895;240;1090;-46
2021/08/06 03:12:24;;;;;;;;;;;18.90;69.90;;;;;;491560;240;1067;-46
2021/08/06 03:14:25;;;;;;;;;;;18.90;70.00;;;;;;491826;240;1106;-46
2021/08/06 03:16:27;;;;;;;;;;;18.90;70.00;;;;;;491982;240;1241;-45
2021/08/06 03:18:28;;;;;;;;;;;18.90;70.00;;;;;;491621;240;1033;-45
2021/08/06 03:20:29;;;;;;;;;;;18.90;70.00;;;;;;491529;240;1250;-46
2021/08/06 03:22:31;;;;;;;;;;;18.90;70.00;;;;;;491610;240;1141;-45
2021/08/06 03:24:32;;;;;;;;;;;18.90;70.00;;;;;;492010;240;2184;-46
2021/08/06 03:26:33;;;;;;;;;;;18.90;70.00;;;;;;491492;240;1446;-45
2021/08/06 03:28:35;;;;;;;;;;;18.90;70.00;;;;;;491593;240;1113;-46
2021/08/06 03:30:37;;;;;;;;;;;18.90;70.00;;;;;;491660;240;1173;-45
2021/08/06 03:32:37;;;;;;;;;;;18.90;69.90;;;;;;491744;240;2095;-45
2021/08/06 03:34:39;;;;;;;;;;;18.90;70.00;;;;;;492044;240;1068;-45
2021/08/06 03:36:40;;;;;;;;;;;18.90;69.90;;;;;;491814;240;1146;-46
2021/08/06 03:38:41;;;;;;;;;;;18.90;70.00;;;;;;491566;240;1095;-45
2021/08/06 03:40:43;;;;;;;;;;;18.90;69.90;;;;;;491995;240;1017;-46
2021/08/06 03:42:44;;;;;;;;;;;19.00;70.00;;;;;;491508;240;1299;-45
2021/08/06 03:44:47;;;;;;;;;;;18.90;69.90;;;;;;491910;240;2151;-46
2021/08/06 03:46:48;;;;;;;;;;;18.90;70.00;;;;;;491963;240;1373;-46
2021/08/06 03:48:49;;;;;;;;;;;18.90;70.00;;;;;;491684;240;1276;-45
2021/08/06 03:50:51;;;;;;;;;;;18.90;70.00;;;;;;491469;240;1154;-45
2021/08/06 03:52:52;;;;;;;;;;;18.90;70.00;;;;;;491460;240;1149;-45
2021/08/06 03:54:53;;;;;;;;;;;18.90;70.00;;;;;;491618;240;1048;-45
2021/08/06 03:56:55;;;;;;;;;;;18.90;70.10;;;;;;491758;240;1332;-46
2021/08/06 03:58:56;;;;;;;;;;;18.90;70.00;;;;;;492008;240;1124;-46
2021/08/06 04:00:57;;;;;;;;;;;18.90;70.10;;;;;;491555;240;1432;-46
2021/08/06 04:02:58;;;;;;;;;;;18.90;70.00;;;;;;491436;240;1211;-45
2021/08/06 04:05:00;;;;;;;;;;;18.90;70.00;;;;;;492002;240;2188;-45
2021/08/06 04:07:01;;;;;;;;;;;18.90;70.20;;;;;;491436;240;1231;-46
2021/08/06 04:09:02;;;;;;;;;;;18.80;70.10;;;;;;491493;240;1065;-45
2021/08/06 04:11:04;;;;;;;;;;;18.80;70.20;;;;;;491667;240;1339;-46
2021/08/06 04:13:05;;;;;;;;;;;18.80;70.10;;;;;;491440;240;1112;-46
2021/08/06 04:15:06;;;;;;;;;;;18.80;70.00;;;;;;491921;240;1227;-45
2021/08/06 04:17:08;;;;;;;;;;;18.80;70.00;;;;;;491585;240;1252;-46
2021/08/06 04:19:09;;;;;;;;;;;18.90;70.00;;;;;;491503;240;1175;-46
2021/08/06 04:21:10;;;;;;;;;;;18.90;70.00;;;;;;491868;240;1719;-45
2021/08/06 04:23:12;;;;;;;;;;;18.90;70.00;;;;;;491784;240;1160;-46
2021/08/06 04:25:13;;;;;;;;;;;18.90;70.10;;;;;;492031;240;2121;-46
2021/08/06 04:27:14;;;;;;;;;;;18.80;70.00;;;;;;491643;240;1142;-45
2021/08/06 04:29:16;;;;;;;;;;;18.80;70.20;;;;;;491588;240;1097;-46
2021/08/06 04:31:17;;;;;;;;;;;18.80;70.20;;;;;;491514;240;1035;-45
2021/08/06 04:33:18;;;;;;;;;;;18.80;70.20;;;;;;491728;240;1183;-46
2021/08/06 04:35:20;;;;;;;;;;;18.80;70.10;;;;;;491857;240;1099;-46
2021/08/06 04:37:21;;;;;;;;;;;18.80;70.10;;;;;;491648;240;2389;-46
2021/08/06 04:39:22;;;;;;;;;;;18.80;70.20;;;;;;491603;240;1260;-46
2021/08/06 04:41:24;;;;;;;;;;;18.80;70.20;;;;;;491450;240;1128;-45
2021/08/06 04:43:25;;;;;;;;;;;18.80;70.20;;;;;;491725;240;1025;-45
2021/08/06 04:45:26;;;;;;;;;;;18.80;70.30;;;;;;491553;240;2198;-45
2021/08/06 04:47:28;;;;;;;;;;;18.80;70.30;;;;;;491602;240;1292;-46
2021/08/06 04:49:29;;;;;;;;;;;18.80;70.20;;;;;;491961;240;1039;-45
2021/08/06 04:51:30;;;;;;;;;;;18.80;70.20;;;;;;491539;240;1230;-45
2021/08/06 04:53:34;;;;;;;;;;;18.80;70.20;;;;;;491734;240;1150;-46
2021/08/06 04:55:33;;;;;;;;;;;18.80;70.20;;;;;;491524;240;2311;-45
2021/08/06 04:57:35;;;;;;;;;;;18.80;70.20;;;;;;491690;240;1257;-46
2021/08/06 04:59:36;;;;;;;;;;;18.80;70.30;;;;;;491610;240;2246;-46
2021/08/06 05:01:37;;;;;;;;;;;18.80;70.30;;;;;;491516;240;1228;-45
2021/08/06 05:03:38;;;;;;;;;;;18.70;70.30;;;;;;491397;240;2157;-46
2021/08/06 05:05:40;;;;;;;;;;;18.80;70.30;;;;;;491637;240;1138;-46
2021/08/06 05:07:41;;;;;;;;;;;18.80;70.20;;;;;;491425;240;1311;-45
2021/08/06 05:09:42;;;;;;;;;;;18.80;70.30;;;;;;491415;240;1142;-45
2021/08/06 05:11:44;;;;;;;;;;;18.70;70.20;;;;;;491344;240;1147;-45
2021/08/06 05:13:45;;;;;;;;;;;18.80;70.20;;;;;;491440;240;1108;-46
2021/08/06 05:15:46;;;;;;;;;;;18.80;70.20;;;;;;491417;240;1185;-46
2021/08/06 05:17:48;;;;;;;;;;;18.80;70.20;;;;;;491618;240;1255;-45
2021/08/06 05:19:49;;;;;;;;;;;18.70;70.20;;;;;;491332;240;1071;-46
2021/08/06 05:21:50;;;;;;;;;;;18.70;70.30;;;;;;491288;240;1109;-45
2021/08/06 05:23:52;;;;;;;;;;;18.70;70.30;;;;;;491715;240;2196;-45
2021/08/06 05:25:53;;;;;;;;;;;18.80;70.30;;;;;;491463;240;1113;-45
2021/08/06 05:27:55;;;;;;;;;;;18.70;70.30;;;;;;491443;240;1066;-46
2021/08/06 05:29:56;;;;;;;;;;;18.70;70.40;;;;;;491302;240;1200;-45
2021/08/06 05:31:57;;;;;;;;;;;18.70;70.30;;;;;;491409;240;1109;-45
2021/08/06 05:33:59;;;;;;;;;;;18.70;70.30;;;;;;491433;240;1082;-46
2021/08/06 05:36:00;;;;;;;;;;;18.70;70.30;;;;;;491318;240;1084;-46
2021/08/06 05:38:01;;;;;;;;;;;18.70;70.40;;;;;;491376;240;1245;-45
2021/08/06 05:40:03;;;;;;;;;;;18.70;70.30;;;;;;491340;240;1116;-46
2021/08/06 05:42:04;;;;;;;;;;;18.70;70.30;;;;;;491265;240;1260;-45
2021/08/06 05:44:05;;;;;;;;;;;18.70;70.20;;;;;;491515;240;2184;-46
2021/08/06 05:46:07;;;;;;;;;;;18.70;70.30;;;;;;491453;240;1140;-45
2021/08/06 05:48:08;;;;;;;;;;;18.70;70.30;;;;;;491095;240;1100;-46
2021/08/06 05:50:09;;;;;;;;;;;18.70;70.40;;;;;;491210;240;1085;-46
2021/08/06 05:52:10;;;;;;;;;;;18.70;70.40;;;;;;491110;240;1135;-46
2021/08/06 05:54:12;;;;;;;;;;;18.70;70.40;;;;;;491190;240;1357;-46
2021/08/06 05:56:13;;;;;;;;;;;18.70;70.40;;;;;;491342;240;1392;-46
2021/08/06 05:58:15;;;;;;;;;;;18.70;70.30;;;;;;491280;240;1144;-45
2021/08/06 06:00:16;;;;;;;;;;;18.70;70.30;;;;;;491318;240;1041;-46
2021/08/06 06:02:17;;;;;;;;;;;18.70;70.30;;;;;;491427;240;1238;-45
2021/08/06 06:04:18;;;;;;;;;;;18.70;70.30;;;;;;491378;240;2184;-45
2021/08/06 06:06:20;;;;;;;;;;;18.70;70.50;;;;;;491039;240;1088;-46
2021/08/06 06:08:21;;;;;;;;;;;18.70;70.40;;;;;;491077;240;1173;-46
2021/08/06 06:10:22;;;;;;;;;;;18.70;70.40;;;;;;491336;240;1289;-46
2021/08/06 06:12:24;;;;;;;;;;;18.70;70.50;;;;;;491279;240;1291;-46
2021/08/06 06:14:25;;;;;;;;;;;18.70;70.50;;;;;;491180;240;1168;-46
2021/08/06 06:16:26;;;;;;;;;;;18.70;70.40;;;;;;491014;240;1058;-45
2021/08/06 06:18:28;;;;;;;;;;;18.70;70.40;;;;;;491022;240;1392;-46
2021/08/06 06:20:29;;;;;;;;;;;18.70;70.50;;;;;;491099;240;1168;-45
2021/08/06 06:22:30;;;;;;;;;;;18.70;70.50;;;;;;491295;240;1088;-45
2021/08/06 06:24:32;;;;;;;;;;;18.70;70.50;;;;;;491162;240;2156;-46
2021/08/06 06:26:33;;;;;;;;;;;18.70;70.60;;;;;;491012;240;1126;-45
2021/08/06 06:28:34;;;;;;;;;;;18.90;70.10;;;;;;491093;240;1087;-46
2021/08/06 06:30:36;;;;;;;;;;;19.20;68.70;;;;;;490959;240;1068;-46
2021/08/06 06:32:37;;;;;;;;;;;19.40;67.60;;;;;;490895;240;1278;-46
2021/08/06 06:34:39;;;;;;;;;;;19.70;66.80;;;;;;491021;240;1248;-46
2021/08/06 06:36:40;;;;;;;;;;;19.80;66.10;;;;;;491107;240;1141;-46
2021/08/06 06:38:41;;;;;;;;;;;20.00;65.70;;;;;;490997;240;1179;-46
2021/08/06 06:40:43;;;;;;;;;;;20.10;65.40;;;;;;491120;240;1197;-46
2021/08/06 06:42:44;;;;;;;;;;;20.10;65.10;;;;;;491208;240;1237;-46
2021/08/06 06:44:45;;;;;;;;;;;20.20;64.90;;;;;;491196;240;2204;-46
2021/08/06 06:46:46;;;;;;;;;;;20.30;64.70;;;;;;491022;240;1082;-46
2021/08/06 06:48:48;;;;;;;;;;;20.30;64.50;;;;;;491132;240;1135;-46
2021/08/06 06:50:49;;;;;;;;;;;20.40;64.30;;;;;;490862;240;1088;-46
2021/08/06 06:52:50;;;;;;;;;;;20.40;64.10;;;;;;490932;240;1072;-46
2021/08/06 06:54:52;;;;;;;;;;;20.50;63.90;;;;;;490998;240;1183;-46
2021/08/06 06:56:53;;;;;;;;;;;20.50;63.70;;;;;;491116;240;1107;-46
2021/08/06 06:58:54;;;;;;;;;;;20.50;63.60;;;;;;491004;240;1096;-46
2021/08/06 07:00:57;;;;;;;;;;;20.60;63.60;;;;;;490862;240;1209;-46
2021/08/06 07:02:57;;;;;;;;;;;20.60;63.40;;;;;;490928;240;1799;-46
2021/08/06 07:04:59;;;;;;;;;;;20.70;63.40;;;;;;490878;240;2184;-46
2021/08/06 07:07:00;;;;;;;;;;;20.70;63.20;;;;;;491080;240;1197;-46
2021/08/06 07:09:01;;;;;;;;;;;20.80;63.20;;;;;;491086;240;1165;-46
2021/08/06 07:11:03;;;;;;;;;;;20.80;63.10;;;;;;490865;240;1324;-46
2021/08/06 07:13:05;;;;;;;;;;;20.80;63.10;;;;;;490817;240;1320;-46
2021/08/06 07:15:06;;;;;;;;;;;20.80;62.90;;;;;;490915;240;1079;-45
2021/08/06 07:17:07;;;;;;;;;;;20.80;62.90;;;;;;490894;240;1333;-46
2021/08/06 07:19:09;;;;;;;;;;;20.90;62.80;;;;;;490946;240;1064;-46
2021/08/06 07:21:12;;;;;;;;;;;20.90;62.70;;;;;;491015;240;1182;-46
2021/08/06 07:23:12;;;;;;;;;;;20.90;62.60;;;;;;491097;240;2155;-45
2021/08/06 07:25:13;;;;;;;;;;;21.00;62.60;;;;;;490995;240;2192;-45
2021/08/06 07:27:15;;;;;;;;;;;21.00;62.50;;;;;;490914;240;1150;-45
2021/08/06 07:29:16;;;;;;;;;;;21.00;62.50;;;;;;490874;240;1104;-46
2021/08/06 07:31:18;;;;;;;;;;;21.00;62.50;;;;;;491043;240;1214;-46
2021/08/06 07:33:19;;;;;;;;;;;21.10;62.40;;;;;;490936;240;1307;-46
2021/08/06 07:35:21;;;;;;;;;;;21.10;62.40;;;;;;491052;240;1085;-46
2021/08/06 07:37:22;;;;;;;;;;;21.10;62.30;;;;;;490814;240;1190;-46
2021/08/06 07:39:24;;;;;;;;;;;21.10;62.20;;;;;;490880;240;1086;-46
2021/08/06 07:41:25;;;;;;;;;;;21.10;62.10;;;;;;490888;240;1233;-46
2021/08/06 07:43:26;;;;;;;;;;;21.20;62.00;;;;;;490961;240;1140;-46
2021/08/06 07:45:28;;;;;;;;;;;21.20;62.20;;;;;;490875;240;2195;-46
2021/08/06 07:47:29;;;;;;;;;;;21.20;62.20;;;;;;490772;240;1292;-46
2021/08/06 07:49:30;;;;;;;;;;;21.20;62.00;;;;;;491051;240;1264;-46
2021/08/06 07:51:32;;;;;;;;;;;21.20;61.90;;;;;;490675;240;1142;-46
2021/08/06 07:53:33;;;;;;;;;;;21.20;61.90;;;;;;490788;240;1084;-46
2021/08/06 07:55:34;;;;;;;;;;;21.20;62.00;;;;;;490761;240;1718;-46
2021/08/06 07:57:36;;;;;;;;;;;21.30;62.00;;;;;;490828;240;1228;-46
2021/08/06 07:59:38;;;;;;;;;;;21.30;61.90;;;;;;490937;240;1141;-46
2021/08/06 08:01:39;;;;;;;;;;;21.30;61.80;;;;;;490883;240;1956;-46
2021/08/06 08:03:40;;;;;;;;;;;21.30;61.90;;;;;;490982;240;1107;-46
2021/08/06 08:05:42;;;;;;;;;;;21.30;61.90;;;;;;490971;240;2176;-46
2021/08/06 08:07:43;;;;;;;;;;;21.30;61.80;;;;;;491019;240;1151;-46
2021/08/06 08:09:44;;;;;;;;;;;21.30;61.80;;;;;;490964;240;1077;-46
2021/08/06 08:11:46;;;;;;;;;;;21.40;61.80;;;;;;490865;240;1291;-46
2021/08/06 08:13:47;;;;;;;;;;;21.30;61.80;;;;;;490872;240;1582;-46
2021/08/06 08:15:48;;;;;;;;;;;21.40;61.70;;;;;;490834;240;1164;-46
2021/08/06 08:17:49;;;;;;;;;;;21.40;61.80;;;;;;490876;240;1149;-46
2021/08/06 08:19:51;;;;;;;;;;;21.40;61.70;;;;;;490905;240;1184;-45
2021/08/06 08:21:52;;;;;;;;;;;21.40;61.60;;;;;;490964;240;1532;-45
2021/08/06 08:23:54;;;;;;;;;;;21.50;61.60;;;;;;490941;240;1267;-47
2021/08/06 08:25:55;;;;;;;;;;;21.50;61.50;;;;;;490961;240;2199;-46
2021/08/06 08:27:56;;;;;;;;;;;21.40;61.60;;;;;;490898;240;1979;-47
2021/08/06 08:29:58;;;;;;;;;;;21.50;61.50;;;;;;490890;240;1098;-46
2021/08/06 08:31:59;;;;;;;;;;;21.50;61.60;;;;;;490915;240;1296;-46
2021/08/06 08:34:00;;;;;;;;;;;21.50;61.70;;;;;;490840;240;1117;-46
2021/08/06 08:36:02;;;;;;;;;;;21.50;61.70;;;;;;490721;240;1298;-46
2021/08/06 08:38:03;;;;;;;;;;;21.50;61.50;;;;;;490804;240;1065;-46
2021/08/06 08:40:04;;;;;;;;;;;21.50;61.50;;;;;;490799;240;1042;-46
2021/08/06 08:42:06;;;;;;;;;;;21.60;61.40;;;;;;490900;240;1176;-46
2021/08/06 08:44:07;;;;;;;;;;;21.50;61.50;;;;;;491100;240;1195;-46
2021/08/06 08:46:08;;;;;;;;;;;21.50;61.50;;;;;;490742;240;2179;-46
2021/08/06 08:48:10;;;;;;;;;;;21.60;61.40;;;;;;490820;240;1072;-46
2021/08/06 08:50:11;;;;;;;;;;;21.70;61.30;;;;;;490815;240;1246;-46
2021/08/06 08:52:12;;;;;;;;;;;21.70;61.20;;;;;;490996;240;1336;-46
2021/08/06 08:54:14;;;;;;;;;;;21.70;61.10;;;;;;490799;240;1396;-46
2021/08/06 08:56:15;;;;;;;;;;;21.60;61.10;;;;;;491014;240;1284;-46
2021/08/06 08:58:17;;;;;;;;;;;21.70;61.20;;;;;;490880;240;1212;-46
2021/08/06 09:00:18;;;;;;;;;;;21.60;61.30;;;;;;490917;240;1088;-46
2021/08/06 09:02:19;;;;;;;;;;;21.70;61.30;;;;;;490740;240;1102;-46
2021/08/06 09:04:21;;;;;;;;;;;21.80;61.20;;;;;;490929;240;1239;-46
2021/08/06 09:06:22;;;;;;;;;;;21.80;61.10;;;;;;490841;240;2140;-45
2021/08/06 09:08:23;;;;;;;;;;;21.80;61.20;;;;;;490889;240;1193;-46
2021/08/06 09:10:26;;;;;;;;;;;21.70;61.10;;;;;;490872;240;1090;-46
2021/08/06 09:12:26;;;;;;;;;;;21.80;61.20;;;;;;490809;240;1860;-46
2021/08/06 09:14:27;;;;;;;;;;;21.70;61.10;;;;;;490859;240;1099;-46
2021/08/06 09:16:29;;;;;;;;;;;21.70;61.10;;;;;;490897;240;1101;-46
2021/08/06 09:18:30;;;;;;;;;;;21.70;61.10;;;;;;490867;240;1094;-46
2021/08/06 09:20:31;;;;;;;;;;;21.70;62.00;;;;;;490976;240;1096;-46
2021/08/06 09:22:33;;;;;;;;;;;21.80;62.10;;;;;;490719;240;1124;-46
2021/08/06 09:24:34;;;;;;;;;;;21.50;62.50;;;;;;490723;240;1131;-46
2021/08/06 09:26:37;;;;;;;;;;;21.10;64.00;;;;;;490824;240;2149;-46
2021/08/06 09:28:37;;;;;;;;;;;20.70;65.30;;;;;;490801;240;2230;-46
2021/08/06 09:30:38;;;;;;;;;;;20.40;66.30;;;;;;490829;240;1411;-46
2021/08/06 09:32:39;;;;;;;;;;;20.30;67.00;;;;;;490969;240;1214;-46
2021/08/06 09:34:41;;;;;;;;;;;20.10;67.40;;;;;;490955;240;1166;-45
2021/08/06 09:36:42;;;;;;;;;;;20.10;67.80;;;;;;490894;240;1071;-46
2021/08/06 09:38:43;;;;;;;;;;;20.00;67.90;;;;;;490879;240;1069;-45
2021/08/06 09:40:45;;;;;;;;;;;19.90;68.10;;;;;;490761;240;1085;-46
2021/08/06 09:42:46;;;;;;;;;;;19.80;68.40;;;;;;490847;240;1162;-46
2021/08/06 09:44:47;;;;;;;;;;;19.80;68.50;;;;;;490912;240;1239;-46
2021/08/06 09:46:49;;;;;;;;;;;19.80;68.70;;;;;;490845;240;2156;-46
2021/08/06 09:48:50;;;;;;;;;;;19.70;68.70;;;;;;491013;240;1159;-46
2021/08/06 09:50:51;;;;;;;;;;;19.70;68.90;;;;;;490923;240;1343;-46
2021/08/06 09:52:53;;;;;;;;;;;19.60;69.00;;;;;;490634;240;1085;-46
2021/08/06 09:54:54;;;;;;;;;;;19.60;69.10;;;;;;490758;240;1202;-46
2021/08/06 09:56:56;;;;;;;;;;;19.60;69.10;;;;;;490666;240;1346;-45
2021/08/06 09:58:57;;;;;;;;;;;19.60;69.00;;;;;;490827;240;1105;-46
2021/08/06 10:01:03;;;;;;;;;;;19.50;69.00;;;;;;490779;240;1202;-46
2021/08/06 10:03:00;;;;;;;;;;;19.50;69.10;;;;;;491061;240;1362;-46
2021/08/06 10:05:01;;;;;;;;;;;19.50;69.20;;;;;;490995;240;1161;-46
2021/08/06 10:07:02;;;;;;;;;;;19.40;69.30;;;;;;490831;240;2176;-46
2021/08/06 10:09:04;;;;;;;;;;;19.50;69.30;;;;;;490999;240;1133;-46
2021/08/06 10:11:05;;;;;;;;;;;19.40;69.30;;;;;;490980;240;1226;-45
2021/08/06 10:13:06;;;;;;;;;;;19.40;69.40;;;;;;490847;240;1148;-46
2021/08/06 10:15:08;;;;;;;;;;;19.30;69.50;;;;;;490876;240;1136;-45
2021/08/06 10:17:09;;;;;;;;;;;19.30;69.50;;;;;;490716;240;1422;-45
2021/08/06 10:19:10;;;;;;;;;;;19.40;69.50;;;;;;490724;240;1089;-45
2021/08/06 10:21:12;;;;;;;;;;;19.30;69.50;;;;;;490760;240;1159;-45
2021/08/06 10:23:13;;;;;;;;;;;19.30;69.50;;;;;;490883;240;1250;-45
2021/08/06 10:25:14;;;;;;;;;;;19.30;69.60;;;;;;490824;240;1217;-46
2021/08/06 10:27:16;;;;;;;;;;;19.30;69.50;;;;;;490667;240;2168;-46
2021/08/06 10:29:17;;;;;;;;;;;19.30;69.50;;;;;;490791;240;1082;-45
2021/08/06 10:31:18;;;;;;;;;;;19.30;69.60;;;;;;490773;240;1331;-45
2021/08/06 10:33:22;;;;;;;;;;;19.30;69.60;;;;;;490856;240;1230;-45
2021/08/06 10:35:21;;;;;;;;;;;19.30;69.60;;;;;;490932;240;2076;-46
2021/08/06 10:37:22;;;;;;;;;;;19.20;69.50;;;;;;490838;240;1233;-46
2021/08/06 10:39:24;;;;;;;;;;;19.20;69.60;;;;;;490779;240;1230;-46
2021/08/06 10:41:26;;;;;;;;;;;19.20;69.70;;;;;;491024;240;1193;-46
2021/08/06 10:43:26;;;;;;;;;;;19.20;69.70;;;;;;490845;240;2301;-45
2021/08/06 10:45:28;;;;;;;;;;;19.20;69.70;;;;;;490930;240;1217;-46
2021/08/06 10:47:29;;;;;;;;;;;19.20;69.70;;;;;;490809;240;2101;-45
2021/08/06 10:49:30;;;;;;;;;;;19.20;69.80;;;;;;490694;240;1139;-46
2021/08/06 10:51:32;;;;;;;;;;;19.20;69.70;;;;;;490845;240;1097;-46
2021/08/06 10:53:33;;;;;;;;;;;19.20;69.60;;;;;;490864;240;1149;-45
2021/08/06 10:55:35;;;;;;;;;;;19.20;69.60;;;;;;490901;240;1135;-46
2021/08/06 10:57:36;;;;;;;;;;;19.20;69.80;;;;;;490724;240;1462;-46
2021/08/06 10:59:37;;;;;;;;;;;19.20;69.70;;;;;;490921;240;1119;-45
2021/08/06 11:01:38;;;;;;;;;;;19.20;69.80;;;;;;490768;240;1062;-46
2021/08/06 11:03:40;;;;;;;;;;;19.20;69.80;;;;;;490572;240;1184;-46
2021/08/06 11:05:42;;;;;;;;;;;19.10;69.90;;;;;;490735;240;1101;-45
2021/08/06 11:07:43;;;;;;;;;;;19.10;69.80;;;;;;490562;240;2187;-45
2021/08/06 11:09:44;;;;;;;;;;;19.10;70.00;;;;;;490659;240;1119;-46
2021/08/06 11:11:45;;;;;;;;;;;19.10;69.80;;;;;;490715;240;1647;-46
2021/08/06 11:13:47;;;;;;;;;;;19.10;69.80;;;;;;490779;240;1156;-46
2021/08/06 11:15:48;;;;;;;;;;;19.10;69.80;;;;;;490698;240;1099;-46
2021/08/06 11:17:51;;;;;;;;;;;19.10;69.80;;;;;;490782;240;1216;-45
2021/08/06 11:19:51;;;;;;;;;;;19.00;69.80;;;;;;490762;240;2069;-46
2021/08/06 11:21:52;;;;;;;;;;;19.00;69.90;;;;;;490747;240;1245;-45
2021/08/06 11:23:54;;;;;;;;;;;19.00;69.90;;;;;;490785;240;1076;-45
2021/08/06 11:25:55;;;;;;;;;;;19.00;70.00;;;;;;490719;240;2180;-45
2021/08/06 11:27:56;;;;;;;;;;;19.10;70.00;;;;;;490786;240;1227;-46
2021/08/06 11:29:58;;;;;;;;;;;19.00;70.00;;;;;;490804;240;1472;-46
2021/08/06 11:31:59;;;;;;;;;;;19.00;70.00;;;;;;490747;240;1383;-46
2021/08/06 11:34:00;;;;;;;;;;;19.00;70.10;;;;;;490751;240;1114;-46
2021/08/06 11:36:02;;;;;;;;;;;19.00;70.10;;;;;;490718;240;1156;-45
2021/08/06 11:38:03;;;;;;;;;;;19.00;70.00;;;;;;490931;240;1463;-45
2021/08/06 11:40:04;;;;;;;;;;;19.00;70.00;;;;;;490734;240;1185;-46
2021/08/06 11:42:10;;;;;;;;;;;19.00;70.00;;;;;;490819;240;1274;-45
2021/08/06 11:44:07;;;;;;;;;;;19.00;70.00;;;;;;490813;240;2168;-45
2021/08/06 11:46:08;;;;;;;;;;;19.00;70.00;;;;;;490779;240;2140;-46
2021/08/06 11:48:10;;;;;;;;;;;19.00;70.10;;;;;;490653;240;1363;-46
2021/08/06 11:50:11;;;;;;;;;;;19.00;70.10;;;;;;490821;240;1110;-46
2021/08/06 11:52:12;;;;;;;;;;;19.00;70.10;;;;;;490776;240;1210;-45
2021/08/06 11:54:14;;;;;;;;;;;19.00;70.10;;;;;;490763;240;1126;-46
2021/08/06 11:56:15;;;;;;;;;;;19.00;70.10;;;;;;490800;240;1227;-45